中部国際空港の過去48時間の天気

中部国際空港 (Chubu Centrair International)

現在時刻: 9/26 10:49 JST (9/26 01:49 UTC) 以下の時間は現地時間です。

過去48時間のMETAR気象情報
時間 風向 風速(m/s) 視程 気温(℃) 湿度(%) 気圧(hPa) 天気現象
26 10:30 北北西 6 10km以上 23 65 1015
26 10:00 北北西 6 10km以上 23 65 1015
26 09:30 北北西 6 10km以上 22 69 1015
26 09:00 北北西 7 10km以上 21 73 1015
26 08:30 北北西 7 10km以上 21 69 1015
26 05:30 北北西 7 10km以上 21 78 1014
26 05:00 北北西 6 10km以上 21 78 1014
25 18:00 4 10km以上 21 73 1012
25 17:30 5 10km以上 21 73 1012
25 17:00 5 10km以上 22 73 1012
25 16:30 5 10km以上 22 73 1012
25 16:00 5 10km以上 22 73 1012
25 15:30 北北西 6 10km以上 23 69 1012
25 15:00 北北西 6 10km以上 22 73 1013
25 14:30 北北西 6 10km以上 22 78 1013
25 14:00 北北西 7 10km以上 22 78 1013
25 13:30 6 10km以上 21 88 1013 周辺でしゅう雨
25 13:00 6 10km以上 21 83 1013
25 12:30 北北西 4 10km以上 21 88 1014 弱い雨
25 12:00 3 8000m 20 88 1014 弱い雨
25 11:30 東北東 3 10km以上 20 88 1015 弱い雨
25 11:00 北東 3 10km以上 20 88 1015 弱い雨
25 10:30 北北東 3 10km以上 20 88 1014 弱い雨
25 10:00 4 10km以上 20 88 1014 弱い雨
25 09:30 北北東 5 10km以上 20 83 1014 弱い雨
25 09:00 6 8000m 20 83 1015 弱い雨
25 08:30 9 6000m 20 83 1015 弱い雨 もや
25 08:00 北北西 9 10km以上 22 78 1015 弱い雨
25 07:30 6 10km以上 22 78 1014 弱い雨
25 07:00 6 10km以上 22 78 1013 弱い雨
25 06:30 北西 5 10km以上 23 69 1014 弱い雨
25 06:00 北北西 5 10km以上 22 78 1013
25 05:30 北北西 4 10km以上 22 78 1013
25 05:00 4 10km以上 22 78 1013
25 04:30 4 10km以上 22 73 1013
25 04:00 2 10km以上 23 69 1013
25 03:30 北北西 3 10km以上 22 78 1013
25 03:00 北西 2 10km以上 23 78 1014
25 02:30 北北西 3 10km以上 23 73 1013
25 02:00 北北西 4 10km以上 23 69 1013
25 01:30 西北西 4 10km以上 24 74 1014
25 01:00 西北西 3 10km以上 24 78 1014
25 00:30 北西 2 10km以上 23 73 1014
25 00:00 北西 2 10km以上 24 74 1014
24 23:30 西北西 3 10km以上 24 74 1014
24 23:00 西 3 10km以上 24 74 1014
24 22:30 西 4 10km以上 24 74 1014
24 22:00 西 2 10km以上 25 69 1014
24 21:30 西北西 4 10km以上 25 69 1014
24 21:00 北西 6 10km以上 25 69 1014
24 20:30 北西 6 10km以上 25 65 1014
24 20:00 北西 6 10km以上 26 65 1014
24 19:30 北西 6 10km以上 26 65 1014
24 19:00 北北西 5 10km以上 26 65 1013
24 18:30 北北西 4 10km以上 26 65 1013
24 18:00 北西 3 10km以上 26 79 1014
24 17:30 西北西 3 10km以上 26 79 1013
24 17:00 北西 2 10km以上 27 74 1013
24 16:30 不定 1 10km以上 27 74 1013
24 16:00 南西 2 10km以上 27 74 1013
24 15:30 南西 1 10km以上 27 74 1013
24 15:00 不定 1 10km以上 27 70 1013
24 14:30 西 2 10km以上 27 74 1013
24 14:00 西南西 1 10km以上 28 70 1013
24 13:30 西南西 2 10km以上 27 74 1014
24 13:00 西南西 2 10km以上 27 74 1014
24 12:30 西 3 10km以上 27 74 1014
24 12:00 西南西 2 10km以上 27 74 1014
24 11:30 西北西 2 10km以上 26 74 1014
24 11:00 北西 3 10km以上 26 74 1015
RJGG 260130Z 34011KT 9999 FEW025 SCT050 BKN070 23/16 Q1015 NOSIG
RJGG 260100Z 34011KT 9999 FEW025 BKN070 23/16 Q1015 NOSIG
RJGG 260030Z 34011KT 9999 FEW020 BKN070 22/16 Q1015 NOSIG
RJGG 260000Z 34014KT 9999 FEW020 BKN070 21/16 Q1015 NOSIG
RJGG 252330Z 34013KT 9999 FEW020 BKN070 21/15 Q1015 NOSIG
RJGG 252030Z 34013KT 9999 FEW020 BKN070 21/17 Q1014 NOSIG
RJGG 252000Z 34012KT 9999 FEW020 BKN070 21/17 Q1014 NOSIG
RJGG 250900Z 35008KT 9999 FEW020 BKN/// 21/16 Q1012 NOSIG
RJGG 250830Z 35009KT 9999 FEW020 BKN/// 21/16 Q1012 NOSIG
RJGG 250800Z 35009KT 9999 FEW020 BKN/// 22/17 Q1012 NOSIG
RJGG 250730Z 35010KT 9999 FEW015 BKN090 22/17 Q1012 NOSIG
RJGG 250700Z 35009KT 9999 FEW015 BKN090 22/17 Q1012 NOSIG
RJGG 250630Z 34011KT 9999 FEW015 BKN080 23/17 Q1012 NOSIG
RJGG 250600Z 33012KT 9999 FEW015 BKN080 22/17 Q1013 NOSIG
RJGG 250530Z 34012KT 9999 FEW015 BKN080 22/18 Q1013 NOSIG
RJGG 250500Z 34013KT 9999 FEW010 BKN080 22/18 Q1013 NOSIG
RJGG 250430Z 35012KT 9999 VCSH FEW010 BKN080 21/19 Q1013 NOSIG
RJGG 250400Z 35011KT 9999 FEW010 SCT050 BKN080 21/18 Q1013 NOSIG
RJGG 250330Z 33007KT 9999 -RA FEW010 SCT030 BKN050 21/19 Q1014 NOSIG
RJGG 250300Z 35005KT 8000 -RA FEW010 BKN050 OVC090 20/18 Q1014 NOSIG
RJGG 250230Z 06005KT 9999 -RA FEW010 SCT050 OVC100 20/18 Q1015 NOSIG
RJGG 250200Z 04006KT 010V070 9999 -RA FEW010 OVC100 20/18 Q1015 NOSIG
RJGG 250130Z 02006KT 350V060 9999 -RA FEW010 OVC090 20/18 Q1014 NOSIG
RJGG 250100Z 36008KT 9999 -RA FEW010 OVC080 20/18 Q1014 NOSIG
RJGG 250030Z 02010KT 9999 -RA FEW010 SCT040 OVC080 20/17 Q1014 NOSIG
RJGG 250000Z 01012KT 8000 -RA FEW010 SCT040 BKN080 20/17 Q1015 NOSIG
RJGG 242330Z 35017KT 6000 -RA BR FEW010 SCT040 OVC090 20/17 Q1015 NOSIG
RJGG 242300Z 33017KT 9999 -RA FEW015 BKN080 OVC110 22/18 Q1015 NOSIG
RJGG 242230Z 35011KT 9999 -RA FEW015 BKN090 OVC110 22/18 Q1014 NOSIG
RJGG 242200Z 35012KT 9999 -RA FEW015 SCT080 OVC110 22/18 Q1013 NOSIG
RJGG 242130Z 32010KT 9999 -RA FEW020 SCT080 OVC110 23/17 Q1014 NOSIG
RJGG 242100Z 34010KT 9999 FEW020 BKN110 BKN/// 22/18 Q1013 NOSIG
RJGG 242030Z 34008KT 9999 FEW020 BKN130 BKN/// 22/18 Q1013 NOSIG
RJGG 242000Z 36007KT 9999 FEW020 BKN130 22/18 Q1013 NOSIG
RJGG 241930Z 36007KT 9999 FEW020 BKN110 22/17 Q1013 BECMG 32017KT
RJGG 241900Z 35004KT 9999 FEW020 BKN130 23/17 Q1013 BECMG 32014KT
RJGG 241830Z 33006KT 310V010 9999 FEW020 BKN110 22/18 Q1013 BECMG 32016KT
RJGG 241800Z 32003KT 9999 FEW020 BKN110 23/19 Q1014 BECMG 32014KT
RJGG 241730Z 33006KT 9999 FEW020 BKN110 23/18 Q1013 BECMG 32016KT
RJGG 241700Z 33007KT 9999 FEW020 SCT120 BKN/// 23/17 Q1013 BECMG 32018KT
RJGG 241630Z 30007KT 9999 FEW020 BKN130 24/19 Q1014 NOSIG
RJGG 241600Z 30006KT 9999 FEW020 BKN130 24/20 Q1014 BECMG 32016KT
RJGG 241530Z 32003KT 9999 FEW020 BKN130 BKN/// 23/18 Q1014 BECMG 32015KT
RJGG 241500Z 31004KT 9999 FEW020 BKN130 BKN/// 24/19 Q1014 NOSIG
RJGG 241430Z 29005KT 9999 FEW020 SCT160 BKN/// 24/19 Q1014 NOSIG
RJGG 241400Z 28006KT 9999 FEW020 BKN/// 24/19 Q1014 NOSIG
RJGG 241330Z 27007KT 9999 FEW020 BKN/// 24/19 Q1014 NOSIG
RJGG 241300Z 28004KT 9999 FEW020 BKN/// 25/19 Q1014 NOSIG
RJGG 241230Z 30007KT 9999 FEW020 BKN/// 25/19 Q1014 NOSIG
RJGG 241200Z 32011KT 9999 FEW020 BKN/// 25/19 Q1014 NOSIG
RJGG 241130Z 31011KT 9999 FEW020 BKN/// 25/18 Q1014 NOSIG
RJGG 241100Z 31012KT 9999 FEW020 BKN/// 26/19 Q1014 NOSIG
RJGG 241030Z 32011KT 9999 FEW020 BKN130 BKN/// 26/19 Q1014 NOSIG
RJGG 241000Z 33009KT 9999 FEW020 BKN130 BKN/// 26/19 Q1013 NOSIG
RJGG 240930Z 33008KT 9999 FEW020 BKN130 BKN/// 26/19 Q1013 NOSIG
RJGG 240900Z 31006KT 9999 FEW020 SCT130 BKN/// 26/22 Q1014 NOSIG
RJGG 240830Z 29005KT 9999 FEW020 BKN/// 26/22 Q1013 BECMG 32015KT
RJGG 240800Z 31003KT 9999 FEW020 BKN/// 27/22 Q1013 NOSIG
RJGG 240730Z VRB02KT 9999 FEW020 BKN130 27/22 Q1013 BECMG 28005KT
RJGG 240700Z 23003KT 9999 FEW020 BKN130 27/22 Q1013 BECMG 28005KT
RJGG 240630Z 22002KT 9999 FEW020 BKN130 27/22 Q1013 BECMG 28005KT
RJGG 240600Z VRB01KT 9999 FEW020 SCT130 BKN/// 27/21 Q1013 BECMG 28005KT
RJGG 240530Z 27003KT 9999 FEW020 BKN130 27/22 Q1013 NOSIG
RJGG 240500Z 25002KT 9999 FEW020 SCT140 BKN/// 28/22 Q1013 NOSIG
RJGG 240430Z 25004KT 9999 FEW020 BKN140 27/22 Q1014 NOSIG
RJGG 240400Z 24003KT 9999 FEW020 BKN130 27/22 Q1014 NOSIG
RJGG 240330Z 26005KT 9999 FEW020 BKN130 27/22 Q1014 BECMG 24005KT
RJGG 240300Z 25003KT 9999 FEW020 SCT130 BKN/// 27/22 Q1014 NOSIG
RJGG 240230Z 30003KT 9999 FEW020 BKN130 26/21 Q1014 NOSIG
RJGG 240200Z 31005KT 9999 FEW020 BKN140 26/21 Q1015 NOSIG